Hauptseite
METAR-TAF:

METAR-TAF

Flughäfen :

Bohrplattform

K14-fa-1c, Niederlande

Breite: 53-16-10N, Länge: 3-37-40E, Höhe: 28 m

Beobachtung

Neuester Wetterbericht von vor 29 Minuten, um 18:25 UTC
Wind 14 kt aus Südwest
Temperatur 14°C
Luftfeuchtigkeit 88%
Luftdruck 1014 hPa
Sichtweite 10 km oder mehr
Leicht bewölkt in der Höhe von 2500 ft
Geschlossene Wolkendecke in der Höhe von 3200 ft

METAR: EHKV 231825Z AUTO 23014KT 9999 FEW025 OVC032 14/12 Q1014

Zeit: 20:54 (18:54 UTC)


TAF: fehlend

Wetterbeobachtungen und Prognosen von mehr als 4000 Flughäfen (METAR und TAF Bericht).

Die verfügbaren Stationen werden durch gelbe und rote Markierungen auf der Karte dargestellt.

Führen Sie die Maus auf sie, um den Namen der Station zu sehen.

Darauf klicken, um die Beobachtung von Wetterbeobachtungen und Prognosen zu sehen.

Um die Karte zu ändern : klicken Sie auf den grünen Tasten mit einem schwarzen Kreuz Zum Vergrößern, auf den grünen Button mit einem Gedankenstrich zu verkleinern, oder auf die grünen Pfeile für benachbarte Karten.


METAR-TAF: